Time,TemperatureF,DewpointF,PressureIn,WindDirection,WindDirectionDegrees,WindSpeedMPH,WindSpeedGustMPH,Humidity,HourlyPrecipIn,Conditions,Clouds,dailyrainin,SoftwareType,DateUTC
2017-01-23 00:04:00,54.7,52.1,29.20,ENE,61,0.0,7.5,91,0.03,,,0.01,WUHU216DAVISVP2,2017-01-23 05:04:00,
2017-01-23 00:09:00,54.6,52.3,29.19,NE,46,3.8,6.3,92,0.03,,,0.01,WUHU216DAVISVP2,2017-01-23 05:09:00,
2017-01-23 00:14:00,54.5,52.2,29.20,ENE,60,1.3,6.3,92,0.03,,,0.01,WUHU216DAVISVP2,2017-01-23 05:14:00,
2017-01-23 00:19:00,54.4,52.1,29.19,East,88,1.3,5.0,92,0.02,,,0.01,WUHU216DAVISVP2,2017-01-23 05:19:00,
2017-01-23 00:24:00,54.3,52.3,29.19,ENE,64,1.3,5.0,93,0.02,,,0.01,WUHU216DAVISVP2,2017-01-23 05:24:00,
2017-01-23 00:29:00,54.2,52.2,29.19,ENE,63,0.0,3.0,93,0.02,,,0.01,WUHU216DAVISVP2,2017-01-23 05:29:00,
2017-01-23 00:34:00,54.1,52.1,29.19,ENE,64,1.3,3.0,93,0.02,,,0.01,WUHU216DAVISVP2,2017-01-23 05:34:00,
2017-01-23 00:39:00,53.9,52.2,29.19,ENE,63,0.0,2.0,94,0.02,,,0.01,WUHU216DAVISVP2,2017-01-23 05:39:00,
2017-01-23 00:44:00,53.8,52.1,29.19,ENE,64,0.0,1.3,94,0.02,,,0.01,WUHU216DAVISVP2,2017-01-23 05:44:00,
2017-01-23 00:49:00,53.7,52.0,29.19,ENE,63,0.0,1.0,94,0.01,,,0.01,WUHU216DAVISVP2,2017-01-23 05:49:00,
2017-01-23 00:54:00,53.7,52.3,29.19,ENE,63,0.0,1.0,95,0.01,,,0.01,WUHU216DAVISVP2,2017-01-23 05:54:00,
2017-01-23 00:59:00,53.7,52.3,29.19,ENE,63,0.0,0.0,95,0.01,,,0.01,WUHU216DAVISVP2,2017-01-23 05:59:00,
2017-01-23 01:04:00,53.6,52.2,29.20,ENE,64,0.0,0.0,95,0.00,,,0.01,WUHU216DAVISVP2,2017-01-23 06:04:00,
2017-01-23 01:09:00,53.6,52.2,29.20,ENE,63,0.0,0.0,95,0.00,,,0.01,WUHU216DAVISVP2,2017-01-23 06:09:00,
2017-01-23 01:14:00,53.6,52.2,29.20,South,184,3.8,3.8,95,0.00,,,0.01,WUHU216DAVISVP2,2017-01-23 06:14:00,
2017-01-23 01:19:00,53.6,52.2,29.20,SE,135,10.0,10.0,95,0.00,,,0.01,WUHU216DAVISVP2,2017-01-23 06:19:00,
2017-01-23 01:24:00,53.3,51.3,29.20,SE,127,2.5,11.3,93,0.00,,,0.01,WUHU216DAVISVP2,2017-01-23 06:24:00,
2017-01-23 01:29:00,53.1,50.8,29.20,WSW,248,1.3,11.3,92,0.00,,,0.01,WUHU216DAVISVP2,2017-01-23 06:29:00,
2017-01-23 01:34:00,52.9,50.6,29.20,South,172,1.3,9.0,92,0.04,,,0.06,WUHU216DAVISVP2,2017-01-23 06:34:00,
2017-01-23 01:39:00,52.7,50.7,29.21,South,191,0.0,9.0,93,0.10,,,0.11,WUHU216DAVISVP2,2017-01-23 06:39:00,
2017-01-23 01:44:00,52.4,50.4,29.21,SSW,198,3.8,16.3,93,0.22,,,0.23,WUHU216DAVISVP2,2017-01-23 06:44:00,
2017-01-23 01:49:00,52.0,50.0,29.21,South,172,5.0,16.3,93,0.30,,,0.31,WUHU216DAVISVP2,2017-01-23 06:49:00,
2017-01-23 01:54:00,51.4,49.4,29.22,SSE,162,6.3,13.0,93,0.33,,,0.34,WUHU216DAVISVP2,2017-01-23 06:54:00,
2017-01-23 01:59:00,50.8,48.8,29.22,SSE,149,3.8,13.0,93,0.37,,,0.39,WUHU216DAVISVP2,2017-01-23 06:59:00,
2017-01-23 02:04:00,50.5,48.8,29.22,SE,138,5.0,10.0,94,0.39,,,0.40,WUHU216DAVISVP2,2017-01-23 07:04:00,
2017-01-23 02:09:00,50.4,48.7,29.22,SSE,149,0.0,9.0,94,0.40,,,0.41,WUHU216DAVISVP2,2017-01-23 07:09:00,
2017-01-23 02:14:00,50.3,48.6,29.23,SSE,163,0.0,9.0,94,0.42,,,0.43,WUHU216DAVISVP2,2017-01-23 07:14:00,
2017-01-23 02:19:00,50.3,48.6,29.23,SW,222,3.8,7.0,94,0.43,,,0.44,WUHU216DAVISVP2,2017-01-23 07:19:00,
2017-01-23 02:24:00,50.1,48.4,29.23,WSW,239,0.0,7.0,94,0.44,,,0.45,WUHU216DAVISVP2,2017-01-23 07:24:00,
2017-01-23 02:29:00,50.0,48.3,29.23,SSE,149,8.8,8.8,94,0.45,,,0.46,WUHU216DAVISVP2,2017-01-23 07:29:00,
2017-01-23 02:34:00,49.9,48.2,29.23,South,186,1.3,8.8,94,0.42,,,0.47,WUHU216DAVISVP2,2017-01-23 07:34:00,
2017-01-23 02:39:00,49.8,48.1,29.23,SSE,160,0.0,8.8,94,0.35,,,0.47,WUHU216DAVISVP2,2017-01-23 07:39:00,
2017-01-23 02:44:00,49.7,48.0,29.23,SSE,166,2.5,8.0,94,0.24,,,0.47,WUHU216DAVISVP2,2017-01-23 07:44:00,
2017-01-23 02:49:00,49.5,47.5,29.23,SSE,149,7.5,7.5,93,0.18,,,0.48,WUHU216DAVISVP2,2017-01-23 07:49:00,
2017-01-23 02:54:00,49.4,47.4,29.23,South,176,0.0,7.5,93,0.14,,,0.48,WUHU216DAVISVP2,2017-01-23 07:54:00,
2017-01-23 02:59:00,49.4,47.4,29.23,SE,142,0.0,7.5,93,0.10,,,0.48,WUHU216DAVISVP2,2017-01-23 07:59:00,
2017-01-23 03:04:00,49.3,47.3,29.23,SSE,162,5.0,6.0,93,0.10,,,0.50,WUHU216DAVISVP2,2017-01-23 08:04:00,
2017-01-23 03:09:00,49.1,47.1,29.23,SE,145,1.3,6.3,93,0.10,,,0.51,WUHU216DAVISVP2,2017-01-23 08:09:00,
2017-01-23 03:14:00,49.1,47.1,29.24,South,179,2.5,6.3,93,0.08,,,0.51,WUHU216DAVISVP2,2017-01-23 08:14:00,
2017-01-23 03:19:00,48.9,46.6,29.24,SSE,156,1.3,6.3,92,0.07,,,0.52,WUHU216DAVISVP2,2017-01-23 08:19:00,
2017-01-23 03:24:00,48.9,46.9,29.24,SSE,155,0.0,7.5,93,0.08,,,0.53,WUHU216DAVISVP2,2017-01-23 08:24:00,
2017-01-23 03:29:00,48.8,46.8,29.24,East,86,0.0,7.5,93,0.08,,,0.54,WUHU216DAVISVP2,2017-01-23 08:29:00,
2017-01-23 03:34:00,48.7,46.7,29.23,NE,56,0.0,6.0,93,0.09,,,0.56,WUHU216DAVISVP2,2017-01-23 08:34:00,
2017-01-23 03:39:00,48.5,46.8,29.23,SE,143,0.0,6.0,94,0.10,,,0.57,WUHU216DAVISVP2,2017-01-23 08:39:00,
2017-01-23 03:44:00,48.5,46.8,29.23,SW,235,0.0,3.0,94,0.11,,,0.58,WUHU216DAVISVP2,2017-01-23 08:44:00,
2017-01-23 03:49:00,48.4,46.7,29.23,SSW,193,0.0,3.0,94,0.10,,,0.58,WUHU216DAVISVP2,2017-01-23 08:49:00,
2017-01-23 03:54:00,48.4,46.8,29.23,SE,126,0.0,1.3,94,0.11,,,0.59,WUHU216DAVISVP2,2017-01-23 08:54:00,
2017-01-23 03:59:00,48.3,46.7,29.23,SE,125,0.0,1.3,94,0.11,,,0.59,WUHU216DAVISVP2,2017-01-23 08:59:00,
2017-01-23 04:04:00,48.3,46.9,29.23,SE,129,0.0,1.0,95,0.10,,,0.59,WUHU216DAVISVP2,2017-01-23 09:04:00,
2017-01-23 04:09:00,48.4,47.0,29.23,SE,146,0.0,1.3,95,0.10,,,0.61,WUHU216DAVISVP2,2017-01-23 09:09:00,
2017-01-23 04:14:00,48.4,47.0,29.23,SSE,147,0.0,1.3,95,0.10,,,0.61,WUHU216DAVISVP2,2017-01-23 09:14:00,
2017-01-23 04:19:00,48.3,46.9,29.23,SSE,147,0.0,1.0,95,0.09,,,0.61,WUHU216DAVISVP2,2017-01-23 09:19:00,
2017-01-23 04:24:00,48.3,46.9,29.23,SSE,147,0.0,1.0,95,0.08,,,0.61,WUHU216DAVISVP2,2017-01-23 09:24:00,
2017-01-23 04:29:00,48.3,46.9,29.23,SE,138,0.0,1.3,95,0.07,,,0.61,WUHU216DAVISVP2,2017-01-23 09:29:00,
2017-01-23 04:34:00,48.3,46.9,29.23,East,101,0.0,2.5,95,0.04,,,0.61,WUHU216DAVISVP2,2017-01-23 09:34:00,
2017-01-23 04:39:00,48.4,46.7,29.23,ESE,121,2.5,4.0,94,0.03,,,0.61,WUHU216DAVISVP2,2017-01-23 09:39:00,
2017-01-23 04:44:00,48.3,46.3,29.23,SSE,149,2.5,5.0,93,0.02,,,0.61,WUHU216DAVISVP2,2017-01-23 09:44:00,
2017-01-23 04:49:00,48.4,46.4,29.23,ESE,104,0.0,5.0,93,0.02,,,0.61,WUHU216DAVISVP2,2017-01-23 09:49:00,
2017-01-23 04:54:00,48.5,46.5,29.23,ESE,104,0.0,4.0,93,0.01,,,0.61,WUHU216DAVISVP2,2017-01-23 09:54:00,
2017-01-23 04:59:00,48.5,46.5,29.23,WSW,248,0.0,3.0,93,0.01,,,0.61,WUHU216DAVISVP2,2017-01-23 09:59:00,
2017-01-23 05:04:00,48.4,46.4,29.23,SW,217,0.0,2.5,93,0.01,,,0.61,WUHU216DAVISVP2,2017-01-23 10:04:00,
2017-01-23 05:09:00,48.4,46.7,29.24,SW,216,0.0,2.0,94,0.00,,,0.61,WUHU216DAVISVP2,2017-01-23 10:09:00,
2017-01-23 05:14:00,48.3,46.3,29.24,SW,217,0.0,2.0,93,0.00,,,0.61,WUHU216DAVISVP2,2017-01-23 10:14:00,
2017-01-23 05:19:00,48.3,46.7,29.24,SW,216,0.0,1.0,94,0.00,,,0.61,WUHU216DAVISVP2,2017-01-23 10:19:00,
2017-01-23 05:24:00,48.3,46.4,29.24,SSW,199,0.0,1.3,93,0.00,,,0.61,WUHU216DAVISVP2,2017-01-23 10:24:00,
2017-01-23 05:29:00,48.3,46.4,29.24,East,95,0.0,1.3,93,0.00,,,0.61,WUHU216DAVISVP2,2017-01-23 10:29:00,
2017-01-23 05:34:00,48.4,46.8,29.24,East,95,0.0,1.3,94,0.00,,,0.61,WUHU216DAVISVP2,2017-01-23 10:34:00,
2017-01-23 05:39:00,48.3,46.6,29.24,East,96,0.0,1.3,94,0.00,,,0.61,WUHU216DAVISVP2,2017-01-23 10:39:00,
2017-01-23 05:44:00,48.3,46.6,29.24,East,96,0.0,1.3,94,0.00,,,0.61,WUHU216DAVISVP2,2017-01-23 10:44:00,
2017-01-23 05:49:00,48.3,46.6,29.24,East,96,0.0,1.0,94,0.00,,,0.61,WUHU216DAVISVP2,2017-01-23 10:49:00,
2017-01-23 05:54:00,48.3,46.6,29.25,East,96,0.0,1.0,94,0.00,,,0.61,WUHU216DAVISVP2,2017-01-23 10:54:00,
2017-01-23 05:59:00,48.3,46.6,29.25,East,96,0.0,1.3,94,0.00,,,0.61,WUHU216DAVISVP2,2017-01-23 10:59:00,
2017-01-23 06:04:00,48.3,46.9,29.25,East,96,0.0,1.3,95,0.00,,,0.61,WUHU216DAVISVP2,2017-01-23 11:04:00,
2017-01-23 06:09:00,48.3,46.9,29.25,East,96,0.0,1.0,95,0.01,,,0.62,WUHU216DAVISVP2,2017-01-23 11:09:00,
2017-01-23 06:14:00,48.3,46.9,29.26,East,96,0.0,1.0,95,0.01,,,0.62,WUHU216DAVISVP2,2017-01-23 11:14:00,
2017-01-23 06:19:00,48.3,46.9,29.26,East,96,0.0,0.0,95,0.02,,,0.63,WUHU216DAVISVP2,2017-01-23 11:19:00,
2017-01-23 06:24:00,48.4,47.0,29.26,East,96,0.0,0.0,95,0.03,,,0.64,WUHU216DAVISVP2,2017-01-23 11:24:00,
2017-01-23 06:29:00,48.4,47.0,29.26,East,96,0.0,0.0,95,0.03,,,0.64,WUHU216DAVISVP2,2017-01-23 11:29:00,
2017-01-23 06:34:00,48.4,47.0,29.26,East,96,0.0,0.0,95,0.03,,,0.64,WUHU216DAVISVP2,2017-01-23 11:34:00,
2017-01-23 06:39:00,48.4,47.0,29.27,East,96,0.0,0.0,95,0.03,,,0.64,WUHU216DAVISVP2,2017-01-23 11:39:00,
2017-01-23 06:44:00,48.4,47.0,29.27,East,96,0.0,0.0,95,0.03,,,0.64,WUHU216DAVISVP2,2017-01-23 11:44:00,
2017-01-23 06:49:00,48.4,47.0,29.27,East,96,0.0,0.0,95,0.04,,,0.65,WUHU216DAVISVP2,2017-01-23 11:49:00,
2017-01-23 06:54:00,48.5,47.1,29.27,East,96,0.0,1.3,95,0.04,,,0.65,WUHU216DAVISVP2,2017-01-23 11:54:00,
2017-01-23 06:59:00,48.5,47.1,29.27,East,96,0.0,1.3,95,0.04,,,0.65,WUHU216DAVISVP2,2017-01-23 11:59:00,
2017-01-23 07:04:00,48.5,47.1,29.28,East,96,0.0,1.3,95,0.04,,,0.65,WUHU216DAVISVP2,2017-01-23 12:04:00,
2017-01-23 07:09:00,48.6,47.5,29.28,East,96,0.0,1.3,96,0.03,,,0.65,WUHU216DAVISVP2,2017-01-23 12:09:00,
2017-01-23 07:14:00,48.6,47.5,29.29,East,96,0.0,1.3,96,0.04,,,0.66,WUHU216DAVISVP2,2017-01-23 12:14:00,
2017-01-23 07:19:00,48.7,47.6,29.29,East,96,0.0,1.3,96,0.03,,,0.66,WUHU216DAVISVP2,2017-01-23 12:19:00,
2017-01-23 07:24:00,48.7,47.6,29.29,East,96,0.0,1.3,96,0.02,,,0.66,WUHU216DAVISVP2,2017-01-23 12:24:00,
2017-01-23 07:29:00,48.7,47.6,29.30,East,94,0.0,1.3,96,0.02,,,0.66,WUHU216DAVISVP2,2017-01-23 12:29:00,
2017-01-23 07:34:00,48.7,47.6,29.30,East,94,0.0,1.3,96,0.02,,,0.66,WUHU216DAVISVP2,2017-01-23 12:34:00,
2017-01-23 07:39:00,48.8,47.7,29.30,East,94,0.0,0.0,96,0.02,,,0.66,WUHU216DAVISVP2,2017-01-23 12:39:00,
2017-01-23 07:44:00,48.8,47.7,29.30,East,94,0.0,0.0,96,0.02,,,0.66,WUHU216DAVISVP2,2017-01-23 12:44:00,
2017-01-23 07:49:00,48.8,47.7,29.31,East,96,0.0,0.0,96,0.01,,,0.66,WUHU216DAVISVP2,2017-01-23 12:49:00,
2017-01-23 07:54:00,48.9,47.8,29.31,East,96,0.0,1.3,96,0.01,,,0.66,WUHU216DAVISVP2,2017-01-23 12:54:00,
2017-01-23 07:59:00,49.0,47.9,29.31,East,96,0.0,1.3,96,0.01,,,0.66,WUHU216DAVISVP2,2017-01-23 12:59:00,
2017-01-23 08:04:00,49.1,48.0,29.31,SW,228,0.0,1.3,96,0.01,,,0.66,WUHU216DAVISVP2,2017-01-23 13:04:00,
2017-01-23 08:09:00,49.3,48.2,29.31,SW,226,0.0,1.3,96,0.01,,,0.66,WUHU216DAVISVP2,2017-01-23 13:09:00,
2017-01-23 08:14:00,50.1,49.3,29.31,WNW,291,0.0,3.8,97,0.00,,,0.66,WUHU216DAVISVP2,2017-01-23 13:14:00,
2017-01-23 08:19:00,50.9,50.0,29.32,West,267,1.3,3.8,97,0.00,,,0.66,WUHU216DAVISVP2,2017-01-23 13:19:00,
2017-01-23 08:24:00,51.6,50.7,29.32,South,190,3.8,6.3,97,0.00,,,0.66,WUHU216DAVISVP2,2017-01-23 13:24:00,
2017-01-23 08:29:00,52.0,51.1,29.33,WNW,293,2.5,6.3,97,0.00,,,0.66,WUHU216DAVISVP2,2017-01-23 13:29:00,
2017-01-23 08:34:00,52.4,51.5,29.33,South,174,1.3,7.5,97,0.00,,,0.66,WUHU216DAVISVP2,2017-01-23 13:34:00,
2017-01-23 08:39:00,52.9,51.2,29.33,SW,221,1.3,7.5,94,0.00,,,0.66,WUHU216DAVISVP2,2017-01-23 13:39:00,
2017-01-23 08:44:00,53.1,51.1,29.34,NW,316,0.0,7.5,93,0.00,,,0.66,WUHU216DAVISVP2,2017-01-23 13:44:00,
2017-01-23 08:49:00,53.4,51.1,29.35,SW,235,2.5,7.0,92,0.00,,,0.66,WUHU216DAVISVP2,2017-01-23 13:49:00,
2017-01-23 08:54:00,53.5,50.9,29.35,West,264,2.5,7.0,91,0.00,,,0.66,WUHU216DAVISVP2,2017-01-23 13:54:00,
2017-01-23 08:59:00,53.6,51.0,29.36,West,264,1.3,5.0,91,0.00,,,0.66,WUHU216DAVISVP2,2017-01-23 13:59:00,
2017-01-23 09:04:00,53.7,50.8,29.36,South,174,0.0,7.5,90,0.00,,,0.66,WUHU216DAVISVP2,2017-01-23 14:04:00,
2017-01-23 09:09:00,53.8,50.9,29.36,South,180,1.3,7.5,90,0.00,,,0.66,WUHU216DAVISVP2,2017-01-23 14:09:00,
2017-01-23 09:14:00,53.9,51.0,29.36,WNW,284,1.3,7.5,90,0.00,,,0.66,WUHU216DAVISVP2,2017-01-23 14:14:00,
2017-01-23 09:19:00,54.0,50.8,29.37,WNW,283,1.3,7.5,89,0.00,,,0.66,WUHU216DAVISVP2,2017-01-23 14:19:00,
2017-01-23 09:24:00,54.2,51.0,29.37,WSW,255,1.3,7.5,89,0.00,,,0.66,WUHU216DAVISVP2,2017-01-23 14:24:00,
2017-01-23 09:29:00,54.3,50.8,29.38,SE,146,1.3,6.0,88,0.00,,,0.66,WUHU216DAVISVP2,2017-01-23 14:29:00,
2017-01-23 09:34:00,54.4,50.6,29.38,NW,311,1.3,6.3,87,0.00,,,0.66,WUHU216DAVISVP2,2017-01-23 14:34:00,
2017-01-23 09:39:00,54.5,50.7,29.39,ESE,117,2.5,7.5,87,0.00,,,0.66,WUHU216DAVISVP2,2017-01-23 14:39:00,
2017-01-23 09:44:00,54.5,50.7,29.39,East,96,1.3,10.0,87,0.00,,,0.66,WUHU216DAVISVP2,2017-01-23 14:44:00,
2017-01-23 09:49:00,54.5,50.4,29.39,SW,226,2.5,11.3,86,0.00,,,0.66,WUHU216DAVISVP2,2017-01-23 14:49:00,
2017-01-23 09:54:00,54.5,50.4,29.40,West,261,3.8,12.5,86,0.00,,,0.66,WUHU216DAVISVP2,2017-01-23 14:54:00,
2017-01-23 09:59:00,54.5,50.4,29.40,WNW,298,0.0,12.5,86,0.00,,,0.66,WUHU216DAVISVP2,2017-01-23 14:59:00,
2017-01-23 10:04:00,54.6,50.8,29.40,WSW,257,1.3,8.0,87,0.00,,,0.66,WUHU216DAVISVP2,2017-01-23 15:04:00,
2017-01-23 10:09:00,54.5,50.1,29.41,North,1,1.3,8.0,85,0.00,,,0.66,WUHU216DAVISVP2,2017-01-23 15:09:00,
2017-01-23 10:14:00,54.6,50.2,29.41,WNW,295,2.5,7.5,85,0.00,,,0.66,WUHU216DAVISVP2,2017-01-23 15:14:00,
2017-01-23 10:19:00,54.6,50.5,29.42,WNW,294,2.5,7.5,86,0.00,,,0.66,WUHU216DAVISVP2,2017-01-23 15:19:00,
2017-01-23 10:24:00,54.6,50.2,29.42,NE,41,0.0,11.3,85,0.00,,,0.66,WUHU216DAVISVP2,2017-01-23 15:24:00,
2017-01-23 10:29:00,54.6,50.2,29.42,SE,136,2.5,11.3,85,0.00,,,0.66,WUHU216DAVISVP2,2017-01-23 15:29:00,
2017-01-23 10:34:00,54.7,50.0,29.43,West,274,1.3,9.0,84,0.00,,,0.66,WUHU216DAVISVP2,2017-01-23 15:34:00,
2017-01-23 10:39:00,54.9,49.9,29.43,East,101,2.5,12.5,83,0.00,,,0.66,WUHU216DAVISVP2,2017-01-23 15:39:00,
2017-01-23 10:44:00,55.1,50.0,29.43,WNW,283,3.8,12.5,83,0.00,,,0.66,WUHU216DAVISVP2,2017-01-23 15:44:00,
2017-01-23 10:49:00,55.2,49.5,29.43,SSE,158,2.5,12.5,81,0.00,,,0.66,WUHU216DAVISVP2,2017-01-23 15:49:00,
2017-01-23 10:54:00,55.3,49.9,29.44,WNW,293,1.3,12.5,82,0.00,,,0.66,WUHU216DAVISVP2,2017-01-23 15:54:00,
2017-01-23 10:59:00,55.3,49.6,29.44,ENE,62,2.5,11.3,81,0.00,,,0.66,WUHU216DAVISVP2,2017-01-23 15:59:00,
2017-01-23 11:04:00,55.4,50.0,29.44,SW,214,2.5,11.3,82,0.00,,,0.66,WUHU216DAVISVP2,2017-01-23 16:04:00,
2017-01-23 11:09:00,55.3,49.6,29.45,SW,233,0.0,10.0,81,0.00,,,0.66,WUHU216DAVISVP2,2017-01-23 16:09:00,
2017-01-23 11:14:00,55.3,49.3,29.45,WNW,284,0.0,11.3,80,0.00,,,0.66,WUHU216DAVISVP2,2017-01-23 16:14:00,
2017-01-23 11:19:00,55.2,49.2,29.46,NW,313,6.3,11.3,80,0.00,,,0.66,WUHU216DAVISVP2,2017-01-23 16:19:00,
2017-01-23 11:24:00,55.1,49.4,29.46,NNE,30,2.5,10.0,81,0.00,,,0.66,WUHU216DAVISVP2,2017-01-23 16:24:00,
2017-01-23 11:29:00,55.0,49.0,29.46,ESE,111,3.8,10.0,80,0.00,,,0.66,WUHU216DAVISVP2,2017-01-23 16:29:00,
2017-01-23 11:34:00,54.9,48.9,29.46,WSW,256,2.5,11.3,80,0.00,,,0.66,WUHU216DAVISVP2,2017-01-23 16:34:00,
2017-01-23 11:39:00,54.9,49.9,29.47,WNW,293,0.0,11.3,83,0.00,,,0.66,WUHU216DAVISVP2,2017-01-23 16:39:00,
2017-01-23 11:44:00,54.9,49.2,29.47,East,86,3.8,10.0,81,0.00,,,0.66,WUHU216DAVISVP2,2017-01-23 16:44:00,
2017-01-23 11:49:00,54.9,48.9,29.47,ENE,58,1.3,15.0,80,0.00,,,0.66,WUHU216DAVISVP2,2017-01-23 16:49:00,
2017-01-23 11:54:00,54.9,48.9,29.47,SW,226,3.8,15.0,80,0.00,,,0.66,WUHU216DAVISVP2,2017-01-23 16:54:00,
2017-01-23 11:59:00,54.9,49.5,29.47,WNW,283,2.5,11.3,82,0.00,,,0.66,WUHU216DAVISVP2,2017-01-23 16:59:00,
2017-01-23 12:04:00,54.8,49.4,29.47,SW,232,1.3,11.0,82,0.00,,,0.66,WUHU216DAVISVP2,2017-01-23 17:04:00,
2017-01-23 12:09:00,54.8,50.1,29.47,East,79,3.8,8.0,84,0.00,,,0.66,WUHU216DAVISVP2,2017-01-23 17:09:00,
2017-01-23 12:14:00,54.8,49.1,29.47,ENE,65,15.0,15.0,81,0.00,,,0.66,WUHU216DAVISVP2,2017-01-23 17:14:00,
2017-01-23 12:19:00,55.0,49.9,29.47,NE,45,8.8,20.0,83,0.00,,,0.66,WUHU216DAVISVP2,2017-01-23 17:19:00,
2017-01-23 12:24:00,55.2,49.5,29.47,NW,323,2.5,15.0,81,0.00,,,0.66,WUHU216DAVISVP2,2017-01-23 17:24:00,
2017-01-23 12:29:00,55.3,49.3,29.47,ENE,74,1.3,15.0,80,0.00,,,0.66,WUHU216DAVISVP2,2017-01-23 17:29:00,
2017-01-23 12:34:00,55.2,48.9,29.47,NNE,19,1.3,9.0,79,0.00,,,0.66,WUHU216DAVISVP2,2017-01-23 17:34:00,
2017-01-23 12:39:00,55.1,49.4,29.47,East,98,1.3,7.5,81,0.00,,,0.66,WUHU216DAVISVP2,2017-01-23 17:39:00,
2017-01-23 12:44:00,55.0,49.0,29.47,North,10,5.0,6.3,80,0.00,,,0.66,WUHU216DAVISVP2,2017-01-23 17:44:00,
2017-01-23 12:49:00,54.9,48.9,29.47,South,191,2.5,13.8,80,0.00,,,0.66,WUHU216DAVISVP2,2017-01-23 17:49:00,
2017-01-23 12:54:00,54.7,48.7,29.47,NNW,328,3.8,13.8,80,0.00,,,0.66,WUHU216DAVISVP2,2017-01-23 17:54:00,
2017-01-23 12:59:00,54.6,49.2,29.47,WNW,302,0.0,12.5,82,0.00,,,0.66,WUHU216DAVISVP2,2017-01-23 17:59:00,
2017-01-23 13:04:00,54.6,49.2,29.47,WSW,258,1.3,10.0,82,0.00,,,0.66,WUHU216DAVISVP2,2017-01-23 18:04:00,
2017-01-23 13:09:00,54.5,48.8,29.48,WSW,249,0.0,9.0,81,0.00,,,0.66,WUHU216DAVISVP2,2017-01-23 18:09:00,
2017-01-23 13:14:00,54.4,48.7,29.48,NW,318,2.5,8.8,81,0.00,,,0.66,WUHU216DAVISVP2,2017-01-23 18:14:00,
2017-01-23 13:19:00,54.3,48.3,29.48,ESE,104,2.5,7.5,80,0.00,,,0.66,WUHU216DAVISVP2,2017-01-23 18:19:00,
2017-01-23 13:24:00,54.4,48.7,29.48,South,189,2.5,7.0,81,0.00,,,0.66,WUHU216DAVISVP2,2017-01-23 18:24:00,
2017-01-23 13:29:00,54.3,48.6,29.48,ESE,114,1.3,11.3,81,0.00,,,0.66,WUHU216DAVISVP2,2017-01-23 18:29:00,
2017-01-23 13:34:00,54.3,48.9,29.48,NW,311,0.0,11.3,82,0.00,,,0.66,WUHU216DAVISVP2,2017-01-23 18:34:00,
2017-01-23 13:39:00,54.1,48.4,29.49,WNW,285,1.3,9.0,81,0.00,,,0.66,WUHU216DAVISVP2,2017-01-23 18:39:00,
2017-01-23 13:44:00,54.0,48.3,29.49,WNW,283,1.3,10.0,81,0.00,,,0.66,WUHU216DAVISVP2,2017-01-23 18:44:00,
2017-01-23 13:49:00,53.8,48.1,29.49,SW,225,1.3,10.0,81,0.00,,,0.66,WUHU216DAVISVP2,2017-01-23 18:49:00,
2017-01-23 13:54:00,53.7,48.4,29.49,South,177,1.3,9.0,82,0.00,,,0.66,WUHU216DAVISVP2,2017-01-23 18:54:00,
2017-01-23 13:59:00,53.6,48.3,29.49,SW,224,2.5,9.0,82,0.00,,,0.66,WUHU216DAVISVP2,2017-01-23 18:59:00,
2017-01-23 14:04:00,53.5,48.2,29.50,NW,310,1.3,6.3,82,0.00,,,0.66,WUHU216DAVISVP2,2017-01-23 19:04:00,
2017-01-23 14:09:00,53.4,48.4,29.50,West,259,1.3,6.3,83,0.00,,,0.66,WUHU216DAVISVP2,2017-01-23 19:09:00,
2017-01-23 14:14:00,53.3,48.6,29.50,SW,231,1.3,7.5,84,0.00,,,0.66,WUHU216DAVISVP2,2017-01-23 19:14:00,
2017-01-23 14:19:00,53.0,48.3,29.50,SSW,194,0.0,7.5,84,0.00,,,0.66,WUHU216DAVISVP2,2017-01-23 19:19:00,
2017-01-23 14:24:00,52.8,48.1,29.50,WSW,246,1.3,6.3,84,0.00,,,0.66,WUHU216DAVISVP2,2017-01-23 19:24:00,
2017-01-23 14:29:00,52.6,47.9,29.50,NE,37,1.3,6.3,84,0.00,,,0.66,WUHU216DAVISVP2,2017-01-23 19:29:00,
2017-01-23 14:34:00,52.6,47.9,29.50,WSW,249,5.0,6.3,84,0.00,,,0.66,WUHU216DAVISVP2,2017-01-23 19:34:00,
2017-01-23 14:39:00,52.6,47.9,29.50,SW,224,1.3,6.3,84,0.00,,,0.66,WUHU216DAVISVP2,2017-01-23 19:39:00,
2017-01-23 14:44:00,52.4,47.4,29.51,South,188,5.0,6.3,83,0.00,,,0.66,WUHU216DAVISVP2,2017-01-23 19:44:00,
2017-01-23 14:49:00,51.9,46.9,29.51,WSW,240,10.0,12.5,83,0.00,,,0.66,WUHU216DAVISVP2,2017-01-23 19:49:00,
2017-01-23 14:54:00,51.5,46.5,29.52,NNW,330,2.5,13.8,83,0.00,,,0.66,WUHU216DAVISVP2,2017-01-23 19:54:00,
2017-01-23 14:59:00,51.2,46.5,29.52,WNW,289,0.0,13.8,84,0.00,,,0.66,WUHU216DAVISVP2,2017-01-23 19:59:00,
2017-01-23 15:04:00,51.0,46.0,29.52,SW,234,2.5,10.0,83,0.00,,,0.66,WUHU216DAVISVP2,2017-01-23 20:04:00,
2017-01-23 15:09:00,50.8,45.8,29.52,SE,131,2.5,11.3,83,0.00,,,0.66,WUHU216DAVISVP2,2017-01-23 20:09:00,
2017-01-23 15:14:00,50.8,46.1,29.52,SE,145,1.3,11.3,84,0.00,,,0.66,WUHU216DAVISVP2,2017-01-23 20:14:00,
2017-01-23 15:19:00,51.1,46.4,29.53,SW,235,2.5,9.0,84,0.00,,,0.66,WUHU216DAVISVP2,2017-01-23 20:19:00,
2017-01-23 15:24:00,51.2,46.2,29.53,WNW,290,2.5,12.5,83,0.00,,,0.66,WUHU216DAVISVP2,2017-01-23 20:24:00,
2017-01-23 15:29:00,51.2,46.2,29.53,SW,233,1.3,12.5,83,0.00,,,0.66,WUHU216DAVISVP2,2017-01-23 20:29:00,
2017-01-23 15:34:00,51.2,46.2,29.53,SSE,158,2.5,10.0,83,0.00,,,0.66,WUHU216DAVISVP2,2017-01-23 20:34:00,
2017-01-23 15:39:00,51.8,47.1,29.53,NNW,338,0.0,9.0,84,0.00,,,0.66,WUHU216DAVISVP2,2017-01-23 20:39:00,
2017-01-23 15:44:00,52.2,46.6,29.54,SE,136,0.0,8.8,81,0.00,,,0.66,WUHU216DAVISVP2,2017-01-23 20:44:00,
2017-01-23 15:49:00,52.6,46.6,29.54,WNW,287,2.5,10.0,80,0.00,,,0.66,WUHU216DAVISVP2,2017-01-23 20:49:00,
2017-01-23 15:54:00,53.0,46.7,29.54,NNE,30,1.3,10.0,79,0.00,,,0.66,WUHU216DAVISVP2,2017-01-23 20:54:00,
2017-01-23 15:59:00,53.0,46.7,29.55,WSW,249,1.3,8.8,79,0.00,,,0.66,WUHU216DAVISVP2,2017-01-23 20:59:00,
2017-01-23 16:04:00,52.8,46.5,29.55,SW,236,0.0,8.8,79,0.00,,,0.66,WUHU216DAVISVP2,2017-01-23 21:04:00,
2017-01-23 16:09:00,52.8,46.5,29.55,SW,228,2.5,8.0,79,0.00,,,0.66,WUHU216DAVISVP2,2017-01-23 21:09:00,
2017-01-23 16:14:00,52.4,46.4,29.56,West,260,2.5,12.5,80,0.00,,,0.66,WUHU216DAVISVP2,2017-01-23 21:14:00,
2017-01-23 16:19:00,52.0,46.1,29.57,SE,134,1.3,12.5,80,0.00,,,0.66,WUHU216DAVISVP2,2017-01-23 21:19:00,
2017-01-23 16:24:00,51.8,46.2,29.57,West,278,2.5,11.0,81,0.00,,,0.66,WUHU216DAVISVP2,2017-01-23 21:24:00,
2017-01-23 16:29:00,51.4,45.8,29.57,SW,235,1.3,11.0,81,0.00,,,0.66,WUHU216DAVISVP2,2017-01-23 21:29:00,
2017-01-23 16:34:00,51.2,45.6,29.58,SW,224,2.5,5.0,81,0.00,,,0.66,WUHU216DAVISVP2,2017-01-23 21:34:00,
2017-01-23 16:39:00,51.0,45.4,29.58,WSW,240,2.5,7.5,81,0.00,,,0.66,WUHU216DAVISVP2,2017-01-23 21:39:00,
2017-01-23 16:44:00,50.8,45.5,29.59,West,272,5.0,7.5,82,0.00,,,0.66,WUHU216DAVISVP2,2017-01-23 21:44:00,
2017-01-23 16:49:00,50.6,45.3,29.59,SW,236,2.5,6.0,82,0.00,,,0.66,WUHU216DAVISVP2,2017-01-23 21:49:00,
2017-01-23 16:54:00,50.6,45.3,29.59,SW,225,2.5,6.0,82,0.00,,,0.66,WUHU216DAVISVP2,2017-01-23 21:54:00,
2017-01-23 16:59:00,50.4,44.8,29.59,WSW,242,2.5,4.0,81,0.00,,,0.66,WUHU216DAVISVP2,2017-01-23 21:59:00,
2017-01-23 17:04:00,50.4,44.8,29.60,West,280,2.5,3.8,81,0.00,,,0.66,WUHU216DAVISVP2,2017-01-23 22:04:00,
2017-01-23 17:09:00,50.3,45.0,29.60,WSW,256,0.0,3.8,82,0.00,,,0.66,WUHU216DAVISVP2,2017-01-23 22:09:00,
2017-01-23 17:14:00,50.2,44.6,29.60,WSW,258,1.3,5.0,81,0.00,,,0.66,WUHU216DAVISVP2,2017-01-23 22:14:00,
2017-01-23 17:19:00,50.1,44.8,29.61,WNW,288,1.3,5.0,82,0.00,,,0.66,WUHU216DAVISVP2,2017-01-23 22:19:00,
2017-01-23 17:24:00,50.0,44.7,29.61,WSW,248,1.3,6.3,82,0.00,,,0.66,WUHU216DAVISVP2,2017-01-23 22:24:00,
2017-01-23 17:29:00,49.9,44.6,29.61,SW,236,3.8,7.5,82,0.00,,,0.66,WUHU216DAVISVP2,2017-01-23 22:29:00,
2017-01-23 17:34:00,49.8,44.2,29.62,West,262,1.3,7.5,81,0.00,,,0.66,WUHU216DAVISVP2,2017-01-23 22:34:00,
2017-01-23 17:39:00,49.6,44.3,29.62,WSW,255,0.0,6.3,82,0.00,,,0.66,WUHU216DAVISVP2,2017-01-23 22:39:00,
2017-01-23 17:44:00,49.5,44.2,29.62,WNW,285,0.0,6.3,82,0.00,,,0.66,WUHU216DAVISVP2,2017-01-23 22:44:00,
2017-01-23 17:49:00,49.4,44.5,29.62,WSW,250,1.3,5.0,83,0.00,,,0.66,WUHU216DAVISVP2,2017-01-23 22:49:00,
2017-01-23 17:54:00,49.3,44.4,29.62,SW,236,0.0,4.0,83,0.00,,,0.66,WUHU216DAVISVP2,2017-01-23 22:54:00,
2017-01-23 17:59:00,49.3,44.4,29.63,WSW,238,1.3,5.0,83,0.00,,,0.66,WUHU216DAVISVP2,2017-01-23 22:59:00,
2017-01-23 18:04:00,49.2,44.6,29.63,WNW,283,2.5,5.0,84,0.00,,,0.66,WUHU216DAVISVP2,2017-01-23 23:04:00,
2017-01-23 18:09:00,49.2,44.3,29.64,West,270,2.5,4.0,83,0.00,,,0.66,WUHU216DAVISVP2,2017-01-23 23:09:00,
2017-01-23 18:14:00,49.1,44.2,29.65,SW,234,0.0,6.3,83,0.00,,,0.66,WUHU216DAVISVP2,2017-01-23 23:14:00,
2017-01-23 18:19:00,49.1,43.9,29.65,WSW,242,3.8,10.0,82,0.00,,,0.66,WUHU216DAVISVP2,2017-01-23 23:19:00,
2017-01-23 18:24:00,49.1,43.9,29.65,SW,226,0.0,10.0,82,0.00,,,0.66,WUHU216DAVISVP2,2017-01-23 23:24:00,
2017-01-23 18:29:00,49.1,43.9,29.66,West,268,5.0,8.0,82,0.00,,,0.66,WUHU216DAVISVP2,2017-01-23 23:29:00,
2017-01-23 18:34:00,49.1,43.8,29.66,West,276,1.3,8.0,82,0.00,,,0.66,WUHU216DAVISVP2,2017-01-23 23:34:00,
2017-01-23 18:39:00,49.0,43.8,29.67,WSW,257,1.3,7.5,82,0.00,,,0.66,WUHU216DAVISVP2,2017-01-23 23:39:00,
2017-01-23 18:44:00,48.9,43.7,29.68,West,276,1.3,7.5,82,0.00,,,0.66,WUHU216DAVISVP2,2017-01-23 23:44:00,
2017-01-23 18:49:00,48.8,43.6,29.68,ENE,75,1.3,6.0,82,0.00,,,0.66,WUHU216DAVISVP2,2017-01-23 23:49:00,
2017-01-23 18:54:00,48.7,43.5,29.68,WSW,241,1.3,6.3,82,0.00,,,0.66,WUHU216DAVISVP2,2017-01-23 23:54:00,
2017-01-23 18:59:00,48.5,43.0,29.69,WNW,285,1.3,6.3,81,0.00,,,0.66,WUHU216DAVISVP2,2017-01-23 23:59:00,
2017-01-23 19:04:00,48.5,43.6,29.69,West,260,0.0,5.0,83,0.00,,,0.66,WUHU216DAVISVP2,2017-01-24 00:04:00,